sensor_id;sensor_type;location;lat;lon;timestamp;P1;durP1;ratioP1;P2;durP2;ratioP2
10939;SDS011;5522;42.696;23.494;2022-11-20T00:00:11;5.03;;;1.77;;
10939;SDS011;5522;42.696;23.494;2022-11-20T00:02:38;1.10;;;1.00;;
10939;SDS011;5522;42.696;23.494;2022-11-20T00:05:05;1.15;;;0.50;;
10939;SDS011;5522;42.696;23.494;2022-11-20T00:07:33;0.88;;;0.10;;
10939;SDS011;5522;42.696;23.494;2022-11-20T00:10:00;0.20;;;0.17;;
10939;SDS011;5522;42.696;23.494;2022-11-20T00:12:28;1.27;;;0.10;;
10939;SDS011;5522;42.696;23.494;2022-11-20T00:14:55;0.90;;;0.10;;
10939;SDS011;5522;42.696;23.494;2022-11-20T00:17:22;0.10;;;0.10;;
10939;SDS011;5522;42.696;23.494;2022-11-20T00:19:48;1.75;;;0.00;;
10939;SDS011;5522;42.696;23.494;2022-11-20T00:22:15;0.40;;;0.10;;
10939;SDS011;5522;42.696;23.494;2022-11-20T00:24:42;0.10;;;0.00;;
10939;SDS011;5522;42.696;23.494;2022-11-20T00:27:09;0.43;;;0.00;;
10939;SDS011;5522;42.696;23.494;2022-11-20T00:29:37;0.30;;;0.10;;
10939;SDS011;5522;42.696;23.494;2022-11-20T00:32:04;0.20;;;0.10;;
10939;SDS011;5522;42.696;23.494;2022-11-20T00:34:31;1.13;;;0.05;;
10939;SDS011;5522;42.696;23.494;2022-11-20T00:36:57;0.32;;;0.10;;
10939;SDS011;5522;42.696;23.494;2022-11-20T00:39:24;0.57;;;0.05;;
10939;SDS011;5522;42.696;23.494;2022-11-20T00:41:51;0.38;;;0.00;;
10939;SDS011;5522;42.696;23.494;2022-11-20T00:44:18;0.28;;;0.03;;
10939;SDS011;5522;42.696;23.494;2022-11-20T00:46:46;0.75;;;0.10;;
10939;SDS011;5522;42.696;23.494;2022-11-20T00:49:13;0.30;;;0.05;;
10939;SDS011;5522;42.696;23.494;2022-11-20T00:51:39;0.25;;;0.00;;
10939;SDS011;5522;42.696;23.494;2022-11-20T00:54:06;0.40;;;0.10;;
10939;SDS011;5522;42.696;23.494;2022-11-20T00:56:33;1.05;;;0.10;;
10939;SDS011;5522;42.696;23.494;2022-11-20T00:59:00;0.38;;;0.10;;
10939;SDS011;5522;42.696;23.494;2022-11-20T01:01:27;0.00;;;0.00;;
10939;SDS011;5522;42.696;23.494;2022-11-20T01:03:57;4.03;;;0.10;;
10939;SDS011;5522;42.696;23.494;2022-11-20T01:06:26;0.65;;;0.03;;
10939;SDS011;5522;42.696;23.494;2022-11-20T01:08:55;1.10;;;0.10;;
10939;SDS011;5522;42.696;23.494;2022-11-20T01:11:24;0.30;;;0.00;;
10939;SDS011;5522;42.696;23.494;2022-11-20T01:13:52;1.05;;;0.00;;
10939;SDS011;5522;42.696;23.494;2022-11-20T01:16:21;0.57;;;0.00;;
10939;SDS011;5522;42.696;23.494;2022-11-20T01:18:49;1.30;;;0.10;;
10939;SDS011;5522;42.696;23.494;2022-11-20T01:21:20;0.38;;;0.10;;
10939;SDS011;5522;42.696;23.494;2022-11-20T01:23:48;0.10;;;0.00;;
10939;SDS011;5522;42.696;23.494;2022-11-20T01:26:16;0.30;;;0.00;;
10939;SDS011;5522;42.696;23.494;2022-11-20T01:28:45;2.55;;;0.10;;
10939;SDS011;5522;42.696;23.494;2022-11-20T01:31:12;1.08;;;0.20;;
10939;SDS011;5522;42.696;23.494;2022-11-20T01:33:40;2.58;;;0.10;;
10939;SDS011;5522;42.696;23.494;2022-11-20T01:36:08;0.40;;;0.00;;
10939;SDS011;5522;42.696;23.494;2022-11-20T01:38:37;0.52;;;0.00;;
10939;SDS011;5522;42.696;23.494;2022-11-20T01:41:04;0.95;;;0.10;;
10939;SDS011;5522;42.696;23.494;2022-11-20T01:43:32;0.85;;;0.10;;
10939;SDS011;5522;42.696;23.494;2022-11-20T01:46:02;0.93;;;0.20;;
10939;SDS011;5522;42.696;23.494;2022-11-20T01:48:41;0.15;;;0.00;;
10939;SDS011;5522;42.696;23.494;2022-11-20T01:51:12;0.05;;;0.00;;
10939;SDS011;5522;42.696;23.494;2022-11-20T01:53:44;0.45;;;0.10;;
10939;SDS011;5522;42.696;23.494;2022-11-20T01:56:12;0.47;;;0.00;;
10939;SDS011;5522;42.696;23.494;2022-11-20T01:58:42;0.73;;;0.00;;
10939;SDS011;5522;42.696;23.494;2022-11-20T02:01:13;1.00;;;0.10;;
10939;SDS011;5522;42.696;23.494;2022-11-20T02:03:40;0.10;;;0.00;;
10939;SDS011;5522;42.696;23.494;2022-11-20T02:06:10;0.10;;;0.00;;
10939;SDS011;5522;42.696;23.494;2022-11-20T02:08:41;0.20;;;0.00;;
10939;SDS011;5522;42.696;23.494;2022-11-20T02:11:09;0.10;;;0.03;;
10939;SDS011;5522;42.696;23.494;2022-11-20T02:13:37;0.22;;;0.00;;
10939;SDS011;5522;42.696;23.494;2022-11-20T02:16:17;0.15;;;0.00;;
10939;SDS011;5522;42.696;23.494;2022-11-20T02:18:48;0.10;;;0.00;;
10939;SDS011;5522;42.696;23.494;2022-11-20T02:21:24;0.35;;;0.00;;
10939;SDS011;5522;42.696;23.494;2022-11-20T02:24:06;0.68;;;0.00;;
10939;SDS011;5522;42.696;23.494;2022-11-20T02:26:38;0.40;;;0.10;;
10939;SDS011;5522;42.696;23.494;2022-11-20T02:29:09;0.22;;;0.00;;
10939;SDS011;5522;42.696;23.494;2022-11-20T02:31:36;0.35;;;0.00;;
10939;SDS011;5522;42.696;23.494;2022-11-20T02:34:04;1.25;;;0.10;;
10939;SDS011;5522;42.696;23.494;2022-11-20T02:36:32;0.10;;;0.00;;
10939;SDS011;5522;42.696;23.494;2022-11-20T02:39:01;3.95;;;0.10;;
10939;SDS011;5522;42.696;23.494;2022-11-20T02:41:34;0.10;;;0.10;;
10939;SDS011;5522;42.696;23.494;2022-11-20T02:44:02;0.85;;;0.00;;
10939;SDS011;5522;42.696;23.494;2022-11-20T02:46:29;0.73;;;0.00;;
10939;SDS011;5522;42.696;23.494;2022-11-20T02:48:57;0.03;;;0.00;;
10939;SDS011;5522;42.696;23.494;2022-11-20T02:51:23;1.45;;;0.10;;
10939;SDS011;5522;42.696;23.494;2022-11-20T02:53:50;0.30;;;0.00;;
10939;SDS011;5522;42.696;23.494;2022-11-20T02:56:17;0.55;;;0.00;;
10939;SDS011;5522;42.696;23.494;2022-11-20T02:58:45;0.17;;;0.00;;
10939;SDS011;5522;42.696;23.494;2022-11-20T03:01:12;0.38;;;0.00;;
10939;SDS011;5522;42.696;23.494;2022-11-20T03:03:40;1.85;;;0.00;;
10939;SDS011;5522;42.696;23.494;2022-11-20T03:06:06;0.20;;;0.03;;
10939;SDS011;5522;42.696;23.494;2022-11-20T03:08:34;0.20;;;0.00;;
10939;SDS011;5522;42.696;23.494;2022-11-20T03:11:04;1.25;;;0.00;;
10939;SDS011;5522;42.696;23.494;2022-11-20T03:13:33;0.30;;;0.00;;
10939;SDS011;5522;42.696;23.494;2022-11-20T03:16:06;0.10;;;0.00;;
10939;SDS011;5522;42.696;23.494;2022-11-20T03:18:34;0.30;;;0.20;;
10939;SDS011;5522;42.696;23.494;2022-11-20T03:21:01;0.10;;;0.08;;
10939;SDS011;5522;42.696;23.494;2022-11-20T03:23:29;0.40;;;0.10;;
10939;SDS011;5522;42.696;23.494;2022-11-20T03:26:06;1.25;;;0.10;;
10939;SDS011;5522;42.696;23.494;2022-11-20T03:28:34;3.05;;;0.00;;
10939;SDS011;5522;42.696;23.494;2022-11-20T03:31:05;0.75;;;0.20;;
10939;SDS011;5522;42.696;23.494;2022-11-20T03:33:33;10.95;;;8.13;;
10939;SDS011;5522;42.696;23.494;2022-11-20T03:36:01;21.60;;;12.02;;
10939;SDS011;5522;42.696;23.494;2022-11-20T03:38:29;6.00;;;3.53;;
10939;SDS011;5522;42.696;23.494;2022-11-20T03:40:58;1.33;;;0.65;;
10939;SDS011;5522;42.696;23.494;2022-11-20T03:43:26;0.30;;;0.30;;
10939;SDS011;5522;42.696;23.494;2022-11-20T03:45:53;1.50;;;1.20;;
10939;SDS011;5522;42.696;23.494;2022-11-20T03:48:21;1.05;;;0.30;;
10939;SDS011;5522;42.696;23.494;2022-11-20T03:50:48;3.60;;;0.70;;
10939;SDS011;5522;42.696;23.494;2022-11-20T03:53:14;2.40;;;1.13;;
10939;SDS011;5522;42.696;23.494;2022-11-20T03:55:42;0.98;;;0.40;;
10939;SDS011;5522;42.696;23.494;2022-11-20T03:58:09;0.50;;;0.20;;
10939;SDS011;5522;42.696;23.494;2022-11-20T04:00:36;0.88;;;0.88;;
10939;SDS011;5522;42.696;23.494;2022-11-20T04:03:03;0.60;;;0.25;;
10939;SDS011;5522;42.696;23.494;2022-11-20T04:05:32;1.33;;;0.20;;
10939;SDS011;5522;42.696;23.494;2022-11-20T04:07:59;1.08;;;0.32;;
10939;SDS011;5522;42.696;23.494;2022-11-20T04:10:26;1.90;;;0.10;;
10939;SDS011;5522;42.696;23.494;2022-11-20T04:12:53;0.30;;;0.30;;
10939;SDS011;5522;42.696;23.494;2022-11-20T04:15:20;0.20;;;0.20;;
10939;SDS011;5522;42.696;23.494;2022-11-20T04:17:47;0.10;;;0.10;;
10939;SDS011;5522;42.696;23.494;2022-11-20T04:20:13;1.08;;;0.90;;
10939;SDS011;5522;42.696;23.494;2022-11-20T04:22:42;0.30;;;0.30;;
10939;SDS011;5522;42.696;23.494;2022-11-20T04:25:08;2.28;;;0.30;;
10939;SDS011;5522;42.696;23.494;2022-11-20T04:27:35;2.63;;;0.50;;
10939;SDS011;5522;42.696;23.494;2022-11-20T04:30:02;0.47;;;0.47;;
10939;SDS011;5522;42.696;23.494;2022-11-20T04:32:29;0.60;;;0.17;;
10939;SDS011;5522;42.696;23.494;2022-11-20T04:34:56;1.17;;;0.60;;
10939;SDS011;5522;42.696;23.494;2022-11-20T04:37:23;2.28;;;0.17;;
10939;SDS011;5522;42.696;23.494;2022-11-20T04:39:51;3.45;;;0.20;;
10939;SDS011;5522;42.696;23.494;2022-11-20T04:42:18;0.80;;;0.30;;
10939;SDS011;5522;42.696;23.494;2022-11-20T04:44:56;1.92;;;0.40;;
10939;SDS011;5522;42.696;23.494;2022-11-20T04:47:23;1.48;;;0.50;;
10939;SDS011;5522;42.696;23.494;2022-11-20T04:49:50;0.57;;;0.43;;
10939;SDS011;5522;42.696;23.494;2022-11-20T04:52:17;0.55;;;0.50;;
10939;SDS011;5522;42.696;23.494;2022-11-20T04:54:44;1.25;;;0.20;;
10939;SDS011;5522;42.696;23.494;2022-11-20T04:57:13;0.50;;;0.50;;
10939;SDS011;5522;42.696;23.494;2022-11-20T04:59:41;1.42;;;0.30;;
10939;SDS011;5522;42.696;23.494;2022-11-20T05:02:08;0.93;;;0.40;;
10939;SDS011;5522;42.696;23.494;2022-11-20T05:04:35;1.67;;;0.45;;
10939;SDS011;5522;42.696;23.494;2022-11-20T05:07:02;0.80;;;0.10;;
10939;SDS011;5522;42.696;23.494;2022-11-20T05:09:29;2.20;;;0.63;;
10939;SDS011;5522;42.696;23.494;2022-11-20T05:11:56;1.55;;;0.30;;
10939;SDS011;5522;42.696;23.494;2022-11-20T05:14:24;1.30;;;1.17;;
10939;SDS011;5522;42.696;23.494;2022-11-20T05:16:51;1.70;;;1.25;;
10939;SDS011;5522;42.696;23.494;2022-11-20T05:19:17;1.48;;;0.38;;
10939;SDS011;5522;42.696;23.494;2022-11-20T05:21:44;0.88;;;0.50;;
10939;SDS011;5522;42.696;23.494;2022-11-20T05:24:11;1.13;;;0.80;;
10939;SDS011;5522;42.696;23.494;2022-11-20T05:26:38;1.23;;;0.50;;
10939;SDS011;5522;42.696;23.494;2022-11-20T05:29:04;1.08;;;0.13;;
10939;SDS011;5522;42.696;23.494;2022-11-20T05:31:33;2.15;;;1.73;;
10939;SDS011;5522;42.696;23.494;2022-11-20T05:33:59;0.70;;;0.22;;
10939;SDS011;5522;42.696;23.494;2022-11-20T05:36:26;2.42;;;0.25;;
10939;SDS011;5522;42.696;23.494;2022-11-20T05:38:53;1.00;;;0.20;;
10939;SDS011;5522;42.696;23.494;2022-11-20T05:41:20;1.40;;;0.20;;
10939;SDS011;5522;42.696;23.494;2022-11-20T05:43:47;0.43;;;0.10;;
10939;SDS011;5522;42.696;23.494;2022-11-20T05:46:16;2.45;;;0.30;;
10939;SDS011;5522;42.696;23.494;2022-11-20T05:48:46;0.82;;;0.50;;
10939;SDS011;5522;42.696;23.494;2022-11-20T05:51:14;2.13;;;0.40;;
10939;SDS011;5522;42.696;23.494;2022-11-20T05:53:42;3.47;;;0.50;;
10939;SDS011;5522;42.696;23.494;2022-11-20T05:56:09;1.17;;;0.45;;
10939;SDS011;5522;42.696;23.494;2022-11-20T05:58:37;1.20;;;0.20;;
10939;SDS011;5522;42.696;23.494;2022-11-20T06:01:06;9.18;;;0.20;;
10939;SDS011;5522;42.696;23.494;2022-11-20T06:03:35;3.20;;;0.20;;
10939;SDS011;5522;42.696;23.494;2022-11-20T06:06:03;0.88;;;0.25;;
10939;SDS011;5522;42.696;23.494;2022-11-20T06:08:31;0.17;;;0.17;;
10939;SDS011;5522;42.696;23.494;2022-11-20T06:11:02;0.85;;;0.30;;
10939;SDS011;5522;42.696;23.494;2022-11-20T06:13:30;1.75;;;0.40;;
10939;SDS011;5522;42.696;23.494;2022-11-20T06:15:56;2.17;;;0.20;;
10939;SDS011;5522;42.696;23.494;2022-11-20T06:18:25;5.25;;;0.30;;
10939;SDS011;5522;42.696;23.494;2022-11-20T06:20:58;3.45;;;0.32;;
10939;SDS011;5522;42.696;23.494;2022-11-20T06:23:29;4.47;;;0.60;;
10939;SDS011;5522;42.696;23.494;2022-11-20T06:25:56;0.90;;;0.30;;
10939;SDS011;5522;42.696;23.494;2022-11-20T06:28:23;3.13;;;0.50;;
10939;SDS011;5522;42.696;23.494;2022-11-20T06:30:50;3.22;;;0.30;;
10939;SDS011;5522;42.696;23.494;2022-11-20T06:33:16;1.60;;;0.30;;
10939;SDS011;5522;42.696;23.494;2022-11-20T06:35:43;1.13;;;0.20;;
10939;SDS011;5522;42.696;23.494;2022-11-20T06:38:10;0.63;;;0.30;;
10939;SDS011;5522;42.696;23.494;2022-11-20T06:40:40;4.88;;;0.40;;
10939;SDS011;5522;42.696;23.494;2022-11-20T06:43:07;1.85;;;0.28;;
10939;SDS011;5522;42.696;23.494;2022-11-20T06:45:34;2.08;;;0.50;;
10939;SDS011;5522;42.696;23.494;2022-11-20T06:48:01;1.85;;;0.40;;
10939;SDS011;5522;42.696;23.494;2022-11-20T06:50:28;3.83;;;0.82;;
10939;SDS011;5522;42.696;23.494;2022-11-20T06:52:54;1.13;;;0.20;;
10939;SDS011;5522;42.696;23.494;2022-11-20T06:55:21;0.93;;;0.30;;
10939;SDS011;5522;42.696;23.494;2022-11-20T06:57:49;1.20;;;0.10;;
10939;SDS011;5522;42.696;23.494;2022-11-20T07:00:16;1.27;;;0.20;;
10939;SDS011;5522;42.696;23.494;2022-11-20T07:02:43;1.38;;;0.20;;
10939;SDS011;5522;42.696;23.494;2022-11-20T07:05:10;2.15;;;0.10;;
10939;SDS011;5522;42.696;23.494;2022-11-20T07:07:37;0.32;;;0.10;;
10939;SDS011;5522;42.696;23.494;2022-11-20T07:10:04;1.42;;;0.10;;
10939;SDS011;5522;42.696;23.494;2022-11-20T07:12:31;0.80;;;0.10;;
10939;SDS011;5522;42.696;23.494;2022-11-20T07:15:00;1.58;;;0.20;;
10939;SDS011;5522;42.696;23.494;2022-11-20T07:17:26;0.80;;;0.10;;
10939;SDS011;5522;42.696;23.494;2022-11-20T07:19:53;3.53;;;0.10;;
10939;SDS011;5522;42.696;23.494;2022-11-20T07:22:20;1.38;;;0.10;;
10939;SDS011;5522;42.696;23.494;2022-11-20T07:24:49;1.58;;;0.25;;
10939;SDS011;5522;42.696;23.494;2022-11-20T07:27:15;0.60;;;0.45;;
10939;SDS011;5522;42.696;23.494;2022-11-20T07:29:42;3.50;;;3.20;;
10939;SDS011;5522;42.696;23.494;2022-11-20T07:32:10;2.08;;;1.35;;
10939;SDS011;5522;42.696;23.494;2022-11-20T07:34:37;1.58;;;1.50;;
10939;SDS011;5522;42.696;23.494;2022-11-20T07:37:04;1.27;;;0.20;;
10939;SDS011;5522;42.696;23.494;2022-11-20T07:39:31;0.30;;;0.20;;
10939;SDS011;5522;42.696;23.494;2022-11-20T07:41:57;2.67;;;0.70;;
10939;SDS011;5522;42.696;23.494;2022-11-20T07:44:24;0.95;;;0.70;;
10939;SDS011;5522;42.696;23.494;2022-11-20T07:46:51;1.85;;;0.38;;
10939;SDS011;5522;42.696;23.494;2022-11-20T07:49:19;0.57;;;0.20;;
10939;SDS011;5522;42.696;23.494;2022-11-20T07:51:46;3.50;;;0.50;;
10939;SDS011;5522;42.696;23.494;2022-11-20T07:54:13;4.80;;;2.20;;
10939;SDS011;5522;42.696;23.494;2022-11-20T07:56:40;3.65;;;0.80;;
10939;SDS011;5522;42.696;23.494;2022-11-20T07:59:06;4.88;;;1.08;;
10939;SDS011;5522;42.696;23.494;2022-11-20T08:01:33;6.38;;;2.35;;
10939;SDS011;5522;42.696;23.494;2022-11-20T08:04:00;5.57;;;1.92;;
10939;SDS011;5522;42.696;23.494;2022-11-20T08:06:28;1.85;;;0.68;;
10939;SDS011;5522;42.696;23.494;2022-11-20T08:08:55;9.30;;;4.47;;
10939;SDS011;5522;42.696;23.494;2022-11-20T08:11:22;5.85;;;2.10;;
10939;SDS011;5522;42.696;23.494;2022-11-20T08:14:06;2.70;;;0.60;;
10939;SDS011;5522;42.696;23.494;2022-11-20T08:16:39;3.03;;;0.30;;
10939;SDS011;5522;42.696;23.494;2022-11-20T08:19:06;2.40;;;0.40;;
10939;SDS011;5522;42.696;23.494;2022-11-20T08:21:34;0.88;;;0.32;;
10939;SDS011;5522;42.696;23.494;2022-11-20T08:24:01;6.63;;;0.20;;
10939;SDS011;5522;42.696;23.494;2022-11-20T08:26:28;1.83;;;0.20;;
10939;SDS011;5522;42.696;23.494;2022-11-20T08:28:55;0.28;;;0.20;;
10939;SDS011;5522;42.696;23.494;2022-11-20T08:31:22;1.35;;;0.10;;
10939;SDS011;5522;42.696;23.494;2022-11-20T08:33:50;1.48;;;0.10;;
10939;SDS011;5522;42.696;23.494;2022-11-20T08:36:18;1.38;;;0.30;;
10939;SDS011;5522;42.696;23.494;2022-11-20T08:38:48;0.22;;;0.20;;
10939;SDS011;5522;42.696;23.494;2022-11-20T08:41:15;1.65;;;0.17;;
10939;SDS011;5522;42.696;23.494;2022-11-20T08:43:52;1.83;;;0.20;;
10939;SDS011;5522;42.696;23.494;2022-11-20T08:46:21;0.35;;;0.10;;
10939;SDS011;5522;42.696;23.494;2022-11-20T08:48:48;4.10;;;0.20;;
10939;SDS011;5522;42.696;23.494;2022-11-20T08:51:15;2.20;;;0.20;;
10939;SDS011;5522;42.696;23.494;2022-11-20T08:53:42;0.40;;;0.20;;
10939;SDS011;5522;42.696;23.494;2022-11-20T08:56:10;0.45;;;0.20;;
10939;SDS011;5522;42.696;23.494;2022-11-20T08:58:38;2.05;;;0.50;;
10939;SDS011;5522;42.696;23.494;2022-11-20T09:01:05;1.92;;;0.40;;
10939;SDS011;5522;42.696;23.494;2022-11-20T09:03:32;1.48;;;0.40;;
10939;SDS011;5522;42.696;23.494;2022-11-20T09:06:00;1.88;;;0.40;;
10939;SDS011;5522;42.696;23.494;2022-11-20T09:08:28;0.40;;;0.40;;
10939;SDS011;5522;42.696;23.494;2022-11-20T09:10:55;3.03;;;0.55;;
10939;SDS011;5522;42.696;23.494;2022-11-20T09:13:25;0.68;;;0.30;;
10939;SDS011;5522;42.696;23.494;2022-11-20T09:15:53;2.25;;;0.28;;
10939;SDS011;5522;42.696;23.494;2022-11-20T09:18:21;7.47;;;0.57;;
10939;SDS011;5522;42.696;23.494;2022-11-20T09:20:49;4.00;;;0.40;;
10939;SDS011;5522;42.696;23.494;2022-11-20T09:23:16;6.53;;;3.00;;
10939;SDS011;5522;42.696;23.494;2022-11-20T09:25:43;9.32;;;4.82;;
10939;SDS011;5522;42.696;23.494;2022-11-20T09:28:10;5.60;;;3.92;;
10939;SDS011;5522;42.696;23.494;2022-11-20T09:30:38;2.00;;;0.82;;
10939;SDS011;5522;42.696;23.494;2022-11-20T09:33:05;5.28;;;0.60;;
10939;SDS011;5522;42.696;23.494;2022-11-20T09:35:32;4.35;;;1.88;;
10939;SDS011;5522;42.696;23.494;2022-11-20T09:38:03;8.15;;;7.43;;
10939;SDS011;5522;42.696;23.494;2022-11-20T09:40:31;4.88;;;3.38;;
10939;SDS011;5522;42.696;23.494;2022-11-20T09:42:59;8.60;;;3.88;;
10939;SDS011;5522;42.696;23.494;2022-11-20T09:45:37;8.90;;;5.68;;
10939;SDS011;5522;42.696;23.494;2022-11-20T09:48:18;6.93;;;3.08;;
10939;SDS011;5522;42.696;23.494;2022-11-20T09:50:54;4.22;;;0.90;;
10939;SDS011;5522;42.696;23.494;2022-11-20T09:53:29;2.25;;;0.50;;
10939;SDS011;5522;42.696;23.494;2022-11-20T09:56:00;4.47;;;1.30;;
10939;SDS011;5522;42.696;23.494;2022-11-20T09:58:31;10.10;;;2.22;;
10939;SDS011;5522;42.696;23.494;2022-11-20T10:01:09;4.60;;;0.88;;
10939;SDS011;5522;42.696;23.494;2022-11-20T10:03:41;3.88;;;1.45;;
10939;SDS011;5522;42.696;23.494;2022-11-20T10:06:16;7.53;;;4.70;;
10939;SDS011;5522;42.696;23.494;2022-11-20T10:08:50;8.38;;;5.82;;
10939;SDS011;5522;42.696;23.494;2022-11-20T10:11:26;7.90;;;5.10;;
10939;SDS011;5522;42.696;23.494;2022-11-20T10:14:03;10.60;;;2.72;;
10939;SDS011;5522;42.696;23.494;2022-11-20T10:16:39;4.90;;;1.13;;
10939;SDS011;5522;42.696;23.494;2022-11-20T10:19:18;11.77;;;6.47;;
10939;SDS011;5522;42.696;23.494;2022-11-20T10:21:58;9.65;;;5.85;;
10939;SDS011;5522;42.696;23.494;2022-11-20T10:27:26;25.33;;;11.07;;
10939;SDS011;5522;42.696;23.494;2022-11-20T10:30:07;30.73;;;15.85;;
10939;SDS011;5522;42.696;23.494;2022-11-20T10:32:38;12.93;;;7.47;;
10939;SDS011;5522;42.696;23.494;2022-11-20T10:35:09;7.95;;;3.67;;
10939;SDS011;5522;42.696;23.494;2022-11-20T10:37:46;17.02;;;10.05;;
10939;SDS011;5522;42.696;23.494;2022-11-20T10:40:18;14.10;;;8.00;;
10939;SDS011;5522;42.696;23.494;2022-11-20T10:42:51;25.15;;;11.43;;
10939;SDS011;5522;42.696;23.494;2022-11-20T10:45:27;13.00;;;6.78;;
10939;SDS011;5522;42.696;23.494;2022-11-20T10:48:07;4.32;;;3.30;;
10939;SDS011;5522;42.696;23.494;2022-11-20T10:50:40;7.63;;;4.15;;
10939;SDS011;5522;42.696;23.494;2022-11-20T10:53:20;20.35;;;12.77;;
10939;SDS011;5522;42.696;23.494;2022-11-20T10:56:00;8.35;;;4.35;;
10939;SDS011;5522;42.696;23.494;2022-11-20T10:58:36;4.85;;;1.83;;
10939;SDS011;5522;42.696;23.494;2022-11-20T11:01:13;9.77;;;4.75;;
10939;SDS011;5522;42.696;23.494;2022-11-20T11:03:43;16.38;;;11.40;;
10939;SDS011;5522;42.696;23.494;2022-11-20T11:06:10;22.63;;;10.07;;
10939;SDS011;5522;42.696;23.494;2022-11-20T11:08:42;9.55;;;4.20;;
10939;SDS011;5522;42.696;23.494;2022-11-20T11:11:14;9.52;;;4.82;;
10939;SDS011;5522;42.696;23.494;2022-11-20T11:13:46;10.07;;;6.30;;
10939;SDS011;5522;42.696;23.494;2022-11-20T11:16:17;22.42;;;9.30;;
10939;SDS011;5522;42.696;23.494;2022-11-20T11:18:49;12.38;;;6.65;;
10939;SDS011;5522;42.696;23.494;2022-11-20T11:21:20;4.45;;;4.00;;
10939;SDS011;5522;42.696;23.494;2022-11-20T11:23:57;3.10;;;1.85;;
10939;SDS011;5522;42.696;23.494;2022-11-20T11:26:25;3.92;;;1.00;;
10939;SDS011;5522;42.696;23.494;2022-11-20T11:28:53;2.95;;;0.75;;
10939;SDS011;5522;42.696;23.494;2022-11-20T11:31:22;7.40;;;0.90;;
10939;SDS011;5522;42.696;23.494;2022-11-20T11:33:51;3.13;;;0.80;;
10939;SDS011;5522;42.696;23.494;2022-11-20T11:36:19;3.05;;;1.05;;
10939;SDS011;5522;42.696;23.494;2022-11-20T11:38:50;5.85;;;0.98;;
10939;SDS011;5522;42.696;23.494;2022-11-20T11:41:20;15.35;;;7.18;;
10939;SDS011;5522;42.696;23.494;2022-11-20T11:43:51;6.88;;;4.25;;
10939;SDS011;5522;42.696;23.494;2022-11-20T11:46:37;6.88;;;1.50;;
10939;SDS011;5522;42.696;23.494;2022-11-20T11:49:16;15.07;;;13.88;;
10939;SDS011;5522;42.696;23.494;2022-11-20T11:51:47;2.13;;;0.50;;
10939;SDS011;5522;42.696;23.494;2022-11-20T11:54:28;1.85;;;0.70;;
10939;SDS011;5522;42.696;23.494;2022-11-20T11:57:01;1.60;;;0.40;;
10939;SDS011;5522;42.696;23.494;2022-11-20T11:59:39;2.63;;;0.93;;
10939;SDS011;5522;42.696;23.494;2022-11-20T12:02:15;16.13;;;7.00;;
10939;SDS011;5522;42.696;23.494;2022-11-20T12:04:54;7.22;;;2.88;;
10939;SDS011;5522;42.696;23.494;2022-11-20T12:07:28;6.60;;;3.13;;
10939;SDS011;5522;42.696;23.494;2022-11-20T12:10:06;0.80;;;0.28;;
10939;SDS011;5522;42.696;23.494;2022-11-20T12:12:42;1.90;;;0.20;;
10939;SDS011;5522;42.696;23.494;2022-11-20T12:15:15;0.88;;;0.20;;
10939;SDS011;5522;42.696;23.494;2022-11-20T12:17:48;2.42;;;0.50;;
10939;SDS011;5522;42.696;23.494;2022-11-20T12:20:17;2.10;;;0.70;;
10939;SDS011;5522;42.696;23.494;2022-11-20T12:22:47;0.95;;;0.30;;
10939;SDS011;5522;42.696;23.494;2022-11-20T12:25:22;1.25;;;0.20;;
10939;SDS011;5522;42.696;23.494;2022-11-20T12:30:58;2.03;;;0.20;;
10939;SDS011;5522;42.696;23.494;2022-11-20T12:33:47;0.20;;;0.20;;
10939;SDS011;5522;42.696;23.494;2022-11-20T12:36:30;3.30;;;0.10;;
10939;SDS011;5522;42.696;23.494;2022-11-20T12:39:11;0.90;;;0.10;;
10939;SDS011;5522;42.696;23.494;2022-11-20T12:42:02;0.28;;;0.00;;
10939;SDS011;5522;42.696;23.494;2022-11-20T12:45:01;1.02;;;0.10;;
10939;SDS011;5522;42.696;23.494;2022-11-20T12:51:00;36.03;;;15.38;;
10939;SDS011;5522;42.696;23.494;2022-11-20T12:53:43;43.28;;;15.07;;
10939;SDS011;5522;42.696;23.494;2022-11-20T12:56:22;0.30;;;0.20;;
10939;SDS011;5522;42.696;23.494;2022-11-20T12:59:02;0.20;;;0.05;;
10939;SDS011;5522;42.696;23.494;2022-11-20T13:01:43;0.57;;;0.10;;
10939;SDS011;5522;42.696;23.494;2022-11-20T13:04:18;1.15;;;0.20;;
10939;SDS011;5522;42.696;23.494;2022-11-20T13:06:52;0.20;;;0.20;;
10939;SDS011;5522;42.696;23.494;2022-11-20T13:09:22;1.50;;;0.70;;
10939;SDS011;5522;42.696;23.494;2022-11-20T13:11:50;9.95;;;9.07;;
10939;SDS011;5522;42.696;23.494;2022-11-20T13:14:30;14.68;;;13.38;;
10939;SDS011;5522;42.696;23.494;2022-11-20T13:17:04;2.28;;;1.85;;
10939;SDS011;5522;42.696;23.494;2022-11-20T13:19:36;2.67;;;0.95;;
10939;SDS011;5522;42.696;23.494;2022-11-20T13:22:03;0.47;;;0.10;;
10939;SDS011;5522;42.696;23.494;2022-11-20T13:24:32;0.75;;;0.20;;
10939;SDS011;5522;42.696;23.494;2022-11-20T13:27:03;0.20;;;0.20;;
10939;SDS011;5522;42.696;23.494;2022-11-20T13:29:31;1.15;;;0.20;;
10939;SDS011;5522;42.696;23.494;2022-11-20T13:32:03;54.28;;;30.30;;
10939;SDS011;5522;42.696;23.494;2022-11-20T13:34:31;0.65;;;0.40;;
10939;SDS011;5522;42.696;23.494;2022-11-20T13:37:00;3.78;;;0.40;;
10939;SDS011;5522;42.696;23.494;2022-11-20T13:39:29;2.85;;;0.60;;
10939;SDS011;5522;42.696;23.494;2022-11-20T13:41:59;2.78;;;0.65;;
10939;SDS011;5522;42.696;23.494;2022-11-20T13:44:29;8.05;;;4.05;;
10939;SDS011;5522;42.696;23.494;2022-11-20T13:47:02;14.88;;;10.65;;
10939;SDS011;5522;42.696;23.494;2022-11-20T13:49:29;8.95;;;5.88;;
10939;SDS011;5522;42.696;23.494;2022-11-20T13:52:04;8.20;;;6.20;;
10939;SDS011;5522;42.696;23.494;2022-11-20T13:54:58;8.88;;;5.20;;
10939;SDS011;5522;42.696;23.494;2022-11-20T13:57:53;13.02;;;7.68;;
10939;SDS011;5522;42.696;23.494;2022-11-20T14:00:33;7.07;;;5.45;;
10939;SDS011;5522;42.696;23.494;2022-11-20T14:03:16;4.60;;;2.72;;
10939;SDS011;5522;42.696;23.494;2022-11-20T14:05:48;15.45;;;8.70;;
10939;SDS011;5522;42.696;23.494;2022-11-20T14:08:24;18.17;;;9.73;;
10939;SDS011;5522;42.696;23.494;2022-11-20T14:11:12;4.50;;;2.83;;
10939;SDS011;5522;42.696;23.494;2022-11-20T14:13:50;16.10;;;11.00;;
10939;SDS011;5522;42.696;23.494;2022-11-20T14:16:20;34.03;;;18.58;;
10939;SDS011;5522;42.696;23.494;2022-11-20T14:18:47;12.85;;;7.47;;
10939;SDS011;5522;42.696;23.494;2022-11-20T14:21:20;5.38;;;2.65;;
10939;SDS011;5522;42.696;23.494;2022-11-20T14:23:48;1.70;;;1.60;;
10939;SDS011;5522;42.696;23.494;2022-11-20T14:26:19;3.53;;;1.42;;
10939;SDS011;5522;42.696;23.494;2022-11-20T14:28:47;3.75;;;0.88;;
10939;SDS011;5522;42.696;23.494;2022-11-20T14:31:18;4.53;;;2.00;;
10939;SDS011;5522;42.696;23.494;2022-11-20T14:33:49;26.73;;;12.75;;
10939;SDS011;5522;42.696;23.494;2022-11-20T14:36:17;21.13;;;12.10;;
10939;SDS011;5522;42.696;23.494;2022-11-20T14:38:46;23.40;;;13.13;;
10939;SDS011;5522;42.696;23.494;2022-11-20T14:41:16;16.17;;;10.82;;
10939;SDS011;5522;42.696;23.494;2022-11-20T14:43:46;11.93;;;8.15;;
10939;SDS011;5522;42.696;23.494;2022-11-20T14:46:16;25.73;;;15.15;;
10939;SDS011;5522;42.696;23.494;2022-11-20T14:48:44;64.78;;;37.20;;
10939;SDS011;5522;42.696;23.494;2022-11-20T14:51:22;34.97;;;20.30;;
10939;SDS011;5522;42.696;23.494;2022-11-20T14:53:53;23.25;;;10.82;;
10939;SDS011;5522;42.696;23.494;2022-11-20T14:56:23;34.65;;;17.15;;
10939;SDS011;5522;42.696;23.494;2022-11-20T14:58:57;31.13;;;16.75;;
10939;SDS011;5522;42.696;23.494;2022-11-20T15:01:27;34.10;;;20.40;;
10939;SDS011;5522;42.696;23.494;2022-11-20T15:04:05;32.20;;;19.58;;
10939;SDS011;5522;42.696;23.494;2022-11-20T15:06:34;16.88;;;11.98;;
10939;SDS011;5522;42.696;23.494;2022-11-20T15:09:02;8.77;;;7.65;;
10939;SDS011;5522;42.696;23.494;2022-11-20T15:11:30;9.07;;;6.60;;